Time;durP1;ratioP1;P1;durP2;ratioP2;P2;SDS_P1;SDS_P2;PMS_P1;PMS_P2;Temp;Humidity;BMP_temperature;BMP_pressure;BME280_temperature;BME280_humidity;BME280_pressure;Samples;Min_cycle;Max_cycle;Signal;HPM_P1;HPM_P2
2021/03/20 00:00:19;;;;;;;1.17;0.90;;;18.10;50.50;;;;;;4869371;29;20172;-80
2021/03/20 00:02:45;;;;;;;2.65;0.90;;;18.10;50.50;;;;;;4868858;29;20222;-68
2021/03/20 00:05:11;;;;;;;0.90;0.90;;;18.10;50.60;;;;;;4884546;29;20287;-77
2021/03/20 00:07:37;;;;;;;2.85;1.00;;;18.00;50.50;;;;;;4884323;29;20184;-69
2021/03/20 00:10:05;;;;;;;1.20;0.90;;;18.00;51.10;;;;;;4853196;29;20307;-75
2021/03/20 00:12:31;;;;;;;2.03;0.82;;;18.00;50.50;;;;;;4868664;29;20220;-72
2021/03/20 00:14:57;;;;;;;2.97;0.80;;;18.00;50.50;;;;;;4868830;29;20511;-75
2021/03/20 00:17:22;;;;;;;2.15;1.10;;;18.00;50.50;;;;;;4900267;29;20181;-68
2021/03/20 00:19:48;;;;;;;1.80;1.02;;;18.00;50.50;;;;;;4868714;29;20240;-67
2021/03/20 00:22:13;;;;;;;3.20;0.80;;;17.90;50.50;;;;;;4900573;29;20188;-78
2021/03/20 00:24:39;;;;;;;0.52;0.50;;;17.90;51.10;;;;;;4868436;29;20639;-77
2021/03/20 00:27:05;;;;;;;0.82;0.82;;;17.90;50.40;;;;;;4884289;29;20176;-67
2021/03/20 00:29:30;;;;;;;0.90;0.90;;;17.90;50.50;;;;;;4883185;29;20172;-68
2021/03/20 00:31:56;;;;;;;1.42;1.10;;;17.80;50.50;;;;;;4883842;29;20173;-76
2021/03/20 00:34:22;;;;;;;1.48;0.90;;;17.80;50.40;;;;;;4883773;29;20216;-76
2021/03/20 00:36:47;;;;;;;1.15;0.70;;;17.80;50.50;;;;;;4883738;29;20176;-69
2021/03/20 00:39:13;;;;;;;2.28;1.08;;;17.80;51.00;;;;;;4900884;29;20184;-69
2021/03/20 00:41:38;;;;;;;4.30;0.98;;;17.80;50.40;;;;;;4868247;29;20188;-73
2021/03/20 00:44:04;;;;;;;0.80;0.70;;;17.70;50.30;;;;;;4899936;29;20184;-77
2021/03/20 00:46:30;;;;;;;0.93;0.90;;;17.80;50.40;;;;;;4868174;29;20183;-68
2021/03/20 00:48:55;;;;;;;1.02;0.88;;;17.70;50.30;;;;;;4868324;29;20204;-66
2021/03/20 00:51:21;;;;;;;1.15;0.80;;;17.70;50.40;;;;;;4899706;29;20215;-79
2021/03/20 00:53:47;;;;;;;1.40;1.30;;;17.70;50.40;;;;;;4883570;29;20216;-79
2021/03/20 00:56:12;;;;;;;1.08;0.82;;;17.70;51.00;;;;;;4871555;29;20621;-80
2021/03/20 00:58:39;;;;;;;1.15;0.77;;;17.70;50.40;;;;;;4867470;29;20406;-78
2021/03/20 01:01:18;;;;;;;1.70;0.98;;;17.70;50.30;;;;;;4883689;29;20172;-66
2021/03/20 01:03:44;;;;;;;1.45;0.90;;;17.60;50.30;;;;;;4883587;29;20187;-68
2021/03/20 01:06:13;;;;;;;1.50;1.00;;;17.60;50.30;;;;;;4899493;29;20184;-68
2021/03/20 01:08:38;;;;;;;0.95;0.93;;;17.60;50.90;;;;;;4883187;29;20740;-72
2021/03/20 01:11:04;;;;;;;1.27;0.90;;;17.60;50.30;;;;;;4867834;29;20205;-71
2021/03/20 01:13:30;;;;;;;0.95;0.75;;;17.60;50.20;;;;;;4882394;29;20581;-69
2021/03/20 01:15:55;;;;;;;1.10;1.00;;;17.60;50.30;;;;;;4899961;29;20176;-75
2021/03/20 01:18:21;;;;;;;1.27;0.90;;;17.60;50.20;;;;;;4900203;29;20172;-67
2021/03/20 01:20:47;;;;;;;1.92;0.82;;;17.50;50.10;;;;;;4899494;29;20177;-72
2021/03/20 01:23:13;;;;;;;0.70;0.70;;;17.50;50.10;;;;;;4883301;29;20653;-68
2021/03/20 01:25:38;;;;;;;1.58;0.88;;;17.50;50.10;;;;;;4866723;29;20267;-68
2021/03/20 01:28:04;;;;;;;1.10;1.00;;;17.50;50.10;;;;;;4867805;29;20219;-67
2021/03/20 01:30:33;;;;;;;1.30;1.20;;;17.50;50.10;;;;;;4867418;29;20192;-67
2021/03/20 01:32:59;;;;;;;1.27;1.05;;;17.50;50.70;;;;;;4898994;29;20212;-67
2021/03/20 01:35:25;;;;;;;0.85;0.80;;;17.50;50.70;;;;;;4882973;29;20651;-69
2021/03/20 01:37:50;;;;;;;1.23;1.10;;;17.50;50.00;;;;;;4883047;29;20259;-68
2021/03/20 01:40:21;;;;;;;2.13;1.10;;;17.40;50.00;;;;;;4882599;29;20177;-75
2021/03/20 01:42:47;;;;;;;1.13;1.00;;;17.40;50.00;;;;;;4883175;29;20168;-75
2021/03/20 01:45:19;;;;;;;1.10;1.00;;;17.40;49.90;;;;;;4899518;29;20540;-77
2021/03/20 01:47:54;;;;;;;1.23;0.93;;;17.40;50.00;;;;;;4882232;29;20259;-67
2021/03/20 01:50:24;;;;;;;1.38;1.15;;;17.40;49.90;;;;;;4867353;29;20591;-76
2021/03/20 01:52:53;;;;;;;1.20;0.95;;;17.40;49.90;;;;;;4867353;29;20189;-79
2021/03/20 01:55:20;;;;;;;0.80;0.80;;;17.40;49.90;;;;;;4866639;29;20217;-79
2021/03/20 01:57:57;;;;;;;0.93;0.93;;;17.40;49.90;;;;;;4867316;29;20180;-78
2021/03/20 02:00:32;;;;;;;1.65;1.02;;;17.30;49.80;;;;;;4867507;29;20168;-68
2021/03/20 02:03:00;;;;;;;2.30;1.05;;;17.30;49.80;;;;;;4898658;29;20633;-75
2021/03/20 02:05:28;;;;;;;1.73;1.02;;;17.30;49.70;;;;;;4867000;29;20184;-78
2021/03/20 02:07:54;;;;;;;1.23;0.93;;;17.30;49.80;;;;;;4866597;29;20180;-71
2021/03/20 02:10:22;;;;;;;1.30;1.20;;;17.30;49.70;;;;;;4898959;29;20188;-68
2021/03/20 02:12:50;;;;;;;1.27;1.05;;;17.30;49.70;;;;;;4851475;29;20216;-70
2021/03/20 02:15:25;;;;;;;0.98;0.98;;;17.30;49.80;;;;;;4850915;29;20522;-68
2021/03/20 02:18:03;;;;;;;1.42;1.00;;;17.30;49.70;;;;;;4851251;29;20640;-76
2021/03/20 02:20:36;;;;;;;0.70;0.70;;;17.20;49.70;;;;;;4882889;29;20203;-76
2021/03/20 02:23:08;;;;;;;0.90;0.90;;;17.20;49.60;;;;;;4882424;29;20550;-68
2021/03/20 02:25:45;;;;;;;0.80;0.80;;;17.20;49.60;;;;;;4898473;29;20172;-67
2021/03/20 02:28:32;;;;;;;1.08;1.02;;;17.20;49.70;;;;;;4898848;29;20255;-75
2021/03/20 02:31:03;;;;;;;1.08;0.95;;;17.20;49.60;;;;;;4898271;29;20229;-67
2021/03/20 02:33:51;;;;;;;1.27;0.93;;;17.20;49.60;;;;;;4898257;29;20685;-69
2021/03/20 02:36:37;;;;;;;2.28;1.35;;;17.20;49.60;;;;;;4883345;29;20588;-69
2021/03/20 02:39:27;;;;;;;1.30;1.20;;;17.10;49.60;;;;;;4898619;29;20211;-75
2021/03/20 02:42:18;;;;;;;1.00;0.95;;;17.10;49.50;;;;;;4898587;29;20172;-68
2021/03/20 02:44:58;;;;;;;1.30;1.20;;;17.10;49.60;;;;;;4867391;29;20177;-68
2021/03/20 02:47:27;;;;;;;1.58;1.20;;;17.10;50.20;;;;;;4866621;29;20235;-70
2021/03/20 02:49:59;;;;;;;1.20;1.00;;;17.10;49.50;;;;;;4865788;29;20177;-68
2021/03/20 02:52:34;;;;;;;1.10;1.10;;;17.10;49.50;;;;;;4866307;29;20612;-67
2021/03/20 02:55:11;;;;;;;1.17;1.00;;;17.10;49.50;;;;;;4898000;29;20180;-68
2021/03/20 02:57:48;;;;;;;1.20;1.10;;;17.10;49.50;;;;;;4881740;29;20176;-68
2021/03/20 03:00:20;;;;;;;1.38;1.27;;;17.00;49.40;;;;;;4867662;29;20176;-71
2021/03/20 03:02:46;;;;;;;1.10;1.10;;;17.00;49.40;;;;;;4866840;29;20173;-68
2021/03/20 03:05:23;;;;;;;0.98;0.90;;;17.00;49.40;;;;;;4865183;29;20188;-73
2021/03/20 03:08:08;;;;;;;1.42;1.10;;;17.00;49.40;;;;;;4866192;29;20222;-69
2021/03/20 03:10:35;;;;;;;1.00;1.00;;;17.00;49.30;;;;;;4883136;29;20185;-73
2021/03/20 03:13:05;;;;;;;1.17;1.02;;;17.00;49.30;;;;;;4849789;29;20220;-73
2021/03/20 03:15:33;;;;;;;0.85;0.80;;;17.00;49.40;;;;;;4881104;29;20180;-73
2021/03/20 03:18:02;;;;;;;1.27;1.17;;;17.00;49.40;;;;;;4866036;29;20534;-67
2021/03/20 03:20:30;;;;;;;1.10;1.00;;;17.00;49.30;;;;;;4865668;29;20259;-67
2021/03/20 03:23:02;;;;;;;1.23;1.13;;;16.90;49.20;;;;;;4865762;29;20187;-78
2021/03/20 03:25:28;;;;;;;1.00;1.00;;;16.90;49.30;;;;;;4865226;29;20173;-68
2021/03/20 03:27:55;;;;;;;1.25;1.15;;;17.00;49.30;;;;;;4865753;29;20691;-76
2021/03/20 03:30:22;;;;;;;0.98;0.95;;;16.90;49.20;;;;;;4865466;29;20180;-76
2021/03/20 03:32:57;;;;;;;1.20;1.10;;;16.90;49.20;;;;;;4880296;29;21084;-67
2021/03/20 03:35:23;;;;;;;0.93;0.85;;;16.90;49.20;;;;;;4866158;29;20211;-76
2021/03/20 03:38:08;;;;;;;1.17;1.08;;;16.90;49.20;;;;;;4897881;29;20204;-68
2021/03/20 03:40:44;;;;;;;1.08;0.98;;;16.90;49.20;;;;;;4882728;29;20659;-68
2021/03/20 03:43:10;;;;;;;1.25;1.10;;;16.90;49.20;;;;;;4865620;29;20180;-78
2021/03/20 03:45:36;;;;;;;0.95;0.95;;;16.90;49.20;;;;;;4880640;29;20232;-68
2021/03/20 03:48:03;;;;;;;1.40;1.20;;;16.80;49.20;;;;;;4864948;29;20263;-79
2021/03/20 03:50:34;;;;;;;1.08;1.08;;;16.80;49.20;;;;;;4880771;29;20640;-77
2021/03/20 03:53:04;;;;;;;1.27;1.17;;;16.80;49.20;;;;;;4865518;29;20712;-67
2021/03/20 03:55:30;;;;;;;1.27;1.17;;;16.80;49.10;;;;;;4864662;29;20220;-69
2021/03/20 03:58:24;;;;;;;1.48;1.20;;;16.80;49.80;;;;;;4864952;29;20181;-67
2021/03/20 04:01:08;;;;;;;1.05;0.95;;;16.80;49.10;;;;;;4880249;29;20172;-68
2021/03/20 04:03:47;;;;;;;1.20;1.00;;;16.80;49.20;;;;;;4897019;29;20180;-68
2021/03/20 04:06:23;;;;;;;1.33;1.23;;;16.80;49.20;;;;;;4880540;29;20514;-76
2021/03/20 04:08:55;;;;;;;1.30;1.20;;;16.80;49.10;;;;;;4880030;29;20373;-74
2021/03/20 04:11:21;;;;;;;1.40;1.30;;;16.70;49.10;;;;;;4880368;29;20180;-69
2021/03/20 04:13:56;;;;;;;1.30;1.20;;;16.70;49.10;;;;;;4897327;29;20276;-69
2021/03/20 04:16:26;;;;;;;1.30;1.20;;;16.70;49.00;;;;;;4879868;29;20590;-77
2021/03/20 04:19:08;;;;;;;1.30;1.20;;;16.70;49.10;;;;;;4865575;29;20176;-79
2021/03/20 04:21:48;;;;;;;1.42;1.33;;;16.70;49.00;;;;;;4865129;29;20211;-77
2021/03/20 04:24:47;;;;;;;1.20;1.10;;;16.70;49.00;;;;;;4880619;29;20177;-80
2021/03/20 04:27:13;;;;;;;1.10;1.00;;;16.70;49.10;;;;;;4880605;29;20255;-76
2021/03/20 04:30:03;;;;;;;1.38;1.20;;;16.60;49.60;;;;;;4879691;29;20180;-68
2021/03/20 04:32:46;;;;;;;1.25;1.13;;;16.70;49.00;;;;;;4887091;29;20221;-75
2021/03/20 04:35:37;;;;;;;1.52;1.05;;;16.60;48.90;;;;;;4849951;29;20216;-68
2021/03/20 04:38:04;;;;;;;1.30;1.20;;;16.60;48.90;;;;;;4883626;29;20177;-75
2021/03/20 04:40:43;;;;;;;1.35;1.13;;;16.60;48.90;;;;;;4880923;29;20195;-74
2021/03/20 04:43:13;;;;;;;1.33;1.23;;;16.60;48.90;;;;;;4900139;29;20192;-68
2021/03/20 04:45:44;;;;;;;1.10;1.00;;;16.60;48.90;;;;;;4868341;29;20220;-75
2021/03/20 04:48:19;;;;;;;1.25;1.20;;;16.60;49.60;;;;;;4868639;29;20173;-80
2021/03/20 04:50:48;;;;;;;1.58;1.20;;;16.60;48.90;;;;;;4853038;29;20176;-77
2021/03/20 04:53:14;;;;;;;0.95;0.95;;;16.50;48.90;;;;;;4868545;29;20201;-68
2021/03/20 04:55:39;;;;;;;0.85;0.85;;;16.50;48.90;;;;;;4867909;29;20581;-78
2021/03/20 04:58:32;;;;;;;1.27;1.17;;;16.50;48.90;;;;;;4867619;29;20662;-68
2021/03/20 05:01:01;;;;;;;1.40;1.30;;;16.60;48.90;;;;;;4870864;29;20177;-67
2021/03/20 05:03:36;;;;;;;1.20;1.10;;;16.50;48.90;;;;;;4868070;29;20256;-69
2021/03/20 05:06:07;;;;;;;1.20;1.10;;;16.50;48.90;;;;;;4869156;29;20179;-68
2021/03/20 05:08:39;;;;;;;1.60;1.25;;;16.50;48.90;;;;;;4868010;29;20184;-74
2021/03/20 05:11:41;;;;;;;0.98;0.98;;;16.50;48.90;;;;;;4883753;29;20176;-69
2021/03/20 05:14:20;;;;;;;1.38;1.27;;;16.50;48.90;;;;;;4870139;29;20222;-72
2021/03/20 05:16:56;;;;;;;1.10;1.10;;;16.40;48.80;;;;;;4883907;29;20179;-68
2021/03/20 05:19:23;;;;;;;1.10;1.00;;;16.50;48.90;;;;;;4867630;29;20184;-76
2021/03/20 05:21:50;;;;;;;1.40;1.30;;;16.40;49.20;;;;;;4867783;29;20208;-67
2021/03/20 05:24:26;;;;;;;0.95;0.90;;;16.40;48.80;;;;;;4868226;29;20236;-75
2021/03/20 05:26:52;;;;;;;0.93;0.93;;;16.40;48.80;;;;;;4867834;29;20176;-72
2021/03/20 05:29:18;;;;;;;1.77;1.40;;;16.40;48.80;;;;;;4867805;29;20169;-67
2021/03/20 05:31:43;;;;;;;1.52;1.25;;;16.40;48.90;;;;;;4867069;29;20200;-68
2021/03/20 05:34:29;;;;;;;1.20;1.10;;;16.40;48.80;;;;;;4867370;29;20247;-67
2021/03/20 05:36:54;;;;;;;1.42;1.33;;;16.40;48.80;;;;;;4883048;29;20168;-69
2021/03/20 05:39:21;;;;;;;1.02;1.00;;;16.40;48.90;;;;;;4882125;29;20179;-68
2021/03/20 05:41:57;;;;;;;1.02;1.02;;;16.40;48.90;;;;;;4867585;29;20212;-69
2021/03/20 05:44:48;;;;;;;1.20;1.10;;;16.30;48.80;;;;;;4882646;29;20317;-75
2021/03/20 05:47:26;;;;;;;1.30;1.20;;;16.30;49.50;;;;;;4882316;29;20545;-68
2021/03/20 05:50:31;;;;;;;1.23;1.13;;;16.30;48.90;;;;;;4899469;29;20586;-80
2021/03/20 05:53:03;;;;;;;1.25;1.15;;;16.30;48.80;;;;;;4883520;29;20201;-67
2021/03/20 05:55:54;;;;;;;1.35;1.25;;;16.30;48.90;;;;;;4884310;29;20272;-82
2021/03/20 05:58:35;;;;;;;1.33;1.20;;;16.30;48.80;;;;;;4868425;29;20268;-68
2021/03/20 06:01:25;;;;;;;1.10;1.02;;;16.30;48.80;;;;;;4882007;29;20192;-82
2021/03/20 06:04:22;;;;;;;1.20;1.10;;;16.30;48.80;;;;;;4899144;29;20644;-76
2021/03/20 06:07:15;;;;;;;1.20;1.05;;;16.30;49.00;;;;;;4866549;29;20524;-69
2021/03/20 06:09:52;;;;;;;1.25;1.05;;;16.30;48.90;;;;;;4898920;29;20168;-74
2021/03/20 06:12:52;;;;;;;1.30;1.20;;;16.30;49.10;;;;;;4883138;29;20177;-73
2021/03/20 06:15:33;;;;;;;1.40;1.30;;;16.50;49.30;;;;;;4894296;29;20695;-73
2021/03/20 06:18:24;;;;;;;1.40;1.30;;;16.70;49.20;;;;;;4882145;29;20180;-68
2021/03/20 06:20:52;;;;;;;1.20;1.10;;;16.90;48.80;;;;;;4884519;29;20207;-69
2021/03/20 06:24:03;;;;;;;1.10;1.00;;;17.20;48.40;;;;;;4867122;29;20264;-77
2021/03/20 06:26:34;;;;;;;1.08;1.08;;;17.50;47.90;;;;;;4866139;29;20180;-67
2021/03/20 06:29:13;;;;;;;0.90;0.90;;;17.80;47.50;;;;;;4867015;29;20264;-76
2021/03/20 06:31:48;;;;;;;0.90;0.90;;;18.20;46.90;;;;;;4883424;29;20562;-67
2021/03/20 06:34:18;;;;;;;1.25;1.10;;;18.50;46.30;;;;;;4882027;29;20231;-76
2021/03/20 06:36:50;;;;;;;0.73;0.73;;;18.60;46.10;;;;;;4881453;29;20173;-69
2021/03/20 06:39:57;;;;;;;1.20;1.10;;;18.70;45.90;;;;;;4867327;29;20185;-68
2021/03/20 06:42:31;;;;;;;0.82;0.82;;;18.80;45.80;;;;;;4897773;29;20259;-70
2021/03/20 06:45:05;;;;;;;0.88;0.88;;;18.80;45.80;;;;;;4867127;29;20180;-71
2021/03/20 06:47:33;;;;;;;1.20;1.10;;;18.80;45.70;;;;;;4866597;29;20176;-67
2021/03/20 06:50:18;;;;;;;1.10;1.00;;;18.90;45.80;;;;;;4881159;29;20176;-66
2021/03/20 06:52:47;;;;;;;1.48;1.00;;;18.90;45.70;;;;;;4884352;29;20204;-65
2021/03/20 06:55:26;;;;;;;1.30;1.20;;;18.90;45.70;;;;;;4866160;29;20267;-79
2021/03/20 06:57:52;;;;;;;1.05;1.00;;;19.00;45.70;;;;;;4881763;29;20192;-66
2021/03/20 07:00:25;;;;;;;1.60;1.05;;;18.90;45.70;;;;;;4881662;29;20191;-68
2021/03/20 07:02:57;;;;;;;1.20;1.10;;;18.90;45.70;;;;;;4881401;29;20169;-66
2021/03/20 07:05:50;;;;;;;1.23;1.10;;;18.80;45.90;;;;;;4880510;29;20670;-76
2021/03/20 07:08:44;;;;;;;1.27;1.10;;;18.70;46.10;;;;;;4868644;29;20204;-68
2021/03/20 07:11:34;;;;;;;1.10;1.10;;;18.60;46.30;;;;;;4897316;29;20173;-69
2021/03/20 07:14:02;;;;;;;0.93;0.93;;;18.60;46.50;;;;;;4865611;29;20268;-68
2021/03/20 07:16:28;;;;;;;0.90;0.90;;;18.50;46.50;;;;;;4880773;29;20535;-67
2021/03/20 07:18:55;;;;;;;1.30;1.20;;;18.50;46.50;;;;;;4865161;29;20176;-67
2021/03/20 07:21:37;;;;;;;0.90;0.90;;;18.60;46.60;;;;;;4897612;29;20168;-66
2021/03/20 07:24:09;;;;;;;1.10;1.10;;;18.50;46.50;;;;;;4881121;29;20175;-66
2021/03/20 07:26:54;;;;;;;1.40;1.05;;;18.60;46.60;;;;;;4897591;29;20183;-66
2021/03/20 07:29:53;;;;;;;0.80;0.80;;;18.60;46.50;;;;;;4880852;29;20304;-65
2021/03/20 07:32:25;;;;;;;0.88;0.88;;;18.50;46.60;;;;;;4873563;29;20185;-66
2021/03/20 07:34:52;;;;;;;0.93;0.93;;;18.40;46.70;;;;;;4897599;29;20223;-74
2021/03/20 07:37:22;;;;;;;1.00;1.00;;;18.40;46.80;;;;;;4881107;29;20184;-75
2021/03/20 07:39:52;;;;;;;0.80;0.80;;;18.30;46.90;;;;;;4896966;29;20177;-69
2021/03/20 07:42:33;;;;;;;1.15;0.90;;;18.20;47.00;;;;;;4881420;29;20180;-68
2021/03/20 07:45:05;;;;;;;1.00;1.00;;;18.20;47.10;;;;;;4880756;29;20176;-62
2021/03/20 07:47:33;;;;;;;0.90;0.90;;;18.20;47.20;;;;;;4865352;29;20172;-63
2021/03/20 07:50:06;;;;;;;1.13;1.02;;;18.30;47.70;;;;;;4881030;29;20535;-64
2021/03/20 07:52:32;;;;;;;1.40;1.27;;;18.40;47.40;;;;;;4879829;29;20204;-62
2021/03/20 07:55:05;;;;;;;1.85;1.20;;;18.40;47.60;;;;;;4880856;29;20236;-62
2021/03/20 07:57:30;;;;;;;2.70;1.15;;;18.50;47.80;;;;;;4896058;29;20680;-77
2021/03/20 07:59:56;;;;;;;1.42;1.13;;;18.40;47.90;;;;;;4896973;29;20211;-63
2021/03/20 08:02:35;;;;;;;1.60;1.13;;;18.40;48.80;;;;;;4897138;29;20668;-72
2021/03/20 08:05:21;;;;;;;3.55;1.55;;;18.40;48.20;;;;;;4896104;29;20172;-63
2021/03/20 08:07:51;;;;;;;1.63;1.30;;;18.30;48.30;;;;;;4880164;29;20181;-64
2021/03/20 08:10:33;;;;;;;2.58;1.25;;;18.30;48.60;;;;;;4896318;29;20702;-64
2021/03/20 08:13:18;;;;;;;1.55;1.10;;;18.30;48.80;;;;;;4880728;29;20735;-68
2021/03/20 08:15:50;;;;;;;1.67;1.13;;;18.30;49.00;;;;;;4896540;29;20728;-68
2021/03/20 08:18:19;;;;;;;2.78;1.40;;;18.30;49.00;;;;;;4900007;29;20180;-70
2021/03/20 08:20:56;;;;;;;3.83;1.60;;;18.30;49.20;;;;;;4899343;29;20176;-71
2021/03/20 08:23:43;;;;;;;1.13;1.00;;;18.40;49.00;;;;;;4883954;29;20240;-70
2021/03/20 08:26:27;;;;;;;3.58;1.75;;;18.40;48.90;;;;;;4899894;29;20188;-71
2021/03/20 08:29:06;;;;;;;2.13;1.10;;;18.40;48.90;;;;;;4900273;29;20180;-70
2021/03/20 08:31:50;;;;;;;2.20;1.08;;;18.30;49.00;;;;;;4883858;29;20290;-70
2021/03/20 08:34:50;;;;;;;1.73;1.23;;;18.30;49.10;;;;;;4900819;29;20262;-72
2021/03/20 08:37:35;;;;;;;2.65;1.13;;;18.30;49.10;;;;;;4884003;29;20192;-64
2021/03/20 08:40:08;;;;;;;3.30;1.67;;;18.20;49.20;;;;;;4899714;29;20418;-64
2021/03/20 08:42:58;;;;;;;3.78;1.40;;;18.20;49.40;;;;;;4898874;29;20176;-69
2021/03/20 08:45:39;;;;;;;2.08;1.40;;;18.20;49.40;;;;;;4900325;29;20212;-70
2021/03/20 08:48:32;;;;;;;2.33;1.40;;;18.20;49.50;;;;;;4900571;29;20255;-66
2021/03/20 08:51:16;;;;;;;7.22;1.55;;;18.20;49.40;;;;;;4900243;29;20183;-66
2021/03/20 08:54:10;;;;;;;4.60;1.85;;;18.20;49.90;;;;;;4900040;29;20672;-70
2021/03/20 08:56:48;;;;;;;2.75;1.30;;;18.20;49.70;;;;;;4882755;29;20236;-68
2021/03/20 08:59:18;;;;;;;1.92;1.00;;;18.20;49.70;;;;;;4869165;29;20584;-69
2021/03/20 09:01:52;;;;;;;2.78;1.23;;;18.20;49.60;;;;;;4869088;29;20235;-68
2021/03/20 09:04:20;;;;;;;1.98;1.38;;;18.10;49.60;;;;;;4852813;29;20194;-69
2021/03/20 09:07:00;;;;;;;4.13;2.13;;;18.10;49.60;;;;;;4883595;29;20264;-69
2021/03/20 09:09:52;;;;;;;3.08;1.17;;;18.00;49.60;;;;;;4868939;29;20183;-67
2021/03/20 09:12:28;;;;;;;1.65;1.20;;;18.10;49.40;;;;;;4870234;29;20164;-67
2021/03/20 09:14:54;;;;;;;4.55;1.58;;;18.10;49.40;;;;;;4884339;29;20244;-67
2021/03/20 09:17:31;;;;;;;1.48;1.10;;;18.20;49.40;;;;;;4899238;29;20176;-66
2021/03/20 09:20:23;;;;;;;2.22;1.23;;;18.10;49.30;;;;;;4884664;29;20231;-66
2021/03/20 09:22:48;;;;;;;2.33;1.20;;;18.10;49.30;;;;;;4891223;29;20288;-66
2021/03/20 09:25:40;;;;;;;1.40;1.30;;;18.10;49.30;;;;;;4851602;29;20713;-69
2021/03/20 09:28:08;;;;;;;5.68;1.40;;;18.10;49.90;;;;;;4884252;29;20180;-69
2021/03/20 09:30:39;;;;;;;2.13;1.17;;;18.10;49.30;;;;;;4882871;29;20184;-67
2021/03/20 09:33:27;;;;;;;3.33;1.30;;;18.20;49.20;;;;;;4899106;29;20208;-68
2021/03/20 09:35:53;;;;;;;2.88;1.30;;;18.10;49.20;;;;;;4899671;29;20180;-68
2021/03/20 09:38:34;;;;;;;2.92;1.25;;;18.20;49.20;;;;;;4898910;29;20196;-68
2021/03/20 09:41:29;;;;;;;2.00;1.13;;;18.10;49.20;;;;;;4899717;29;20177;-67
2021/03/20 09:44:01;;;;;;;2.03;1.23;;;18.10;49.30;;;;;;4885782;29;20185;-73
2021/03/20 09:46:34;;;;;;;2.33;1.27;;;18.10;49.30;;;;;;4898908;29;20160;-75
2021/03/20 09:49:00;;;;;;;2.05;1.17;;;18.10;49.20;;;;;;4882867;29;20180;-77
2021/03/20 09:51:59;;;;;;;2.00;1.10;;;18.00;49.30;;;;;;4899291;29;20176;-75
2021/03/20 09:56:57;;;;;;;3.38;1.20;;;18.10;49.30;;;;;;4899259;29;20221;-79
2021/03/20 09:59:33;;;;;;;1.75;1.52;;;18.10;49.30;;;;;;4882156;29;20502;-73
2021/03/20 10:02:19;;;;;;;1.52;1.10;;;18.20;49.30;;;;;;4899305;29;20532;-77
2021/03/20 10:05:05;;;;;;;1.45;1.20;;;18.20;49.30;;;;;;4861028;29;20198;-73
2021/03/20 10:07:33;;;;;;;1.98;1.35;;;18.20;49.30;;;;;;4866458;29;20231;-76
2021/03/20 10:10:08;;;;;;;2.47;1.70;;;18.20;49.40;;;;;;4866959;29;20240;-76
2021/03/20 10:12:46;;;;;;;1.90;1.52;;;18.20;48.00;;;;;;4881953;29;20175;-72
2021/03/20 10:15:13;;;;;;;2.78;1.42;;;18.10;46.30;;;;;;4898535;29;20271;-75
2021/03/20 10:17:57;;;;;;;2.25;1.20;;;18.10;45.90;;;;;;4885801;29;20778;-74
2021/03/20 10:20:24;;;;;;;2.20;1.38;;;18.10;46.30;;;;;;4890875;29;20587;-66
2021/03/20 10:22:59;;;;;;;1.80;1.45;;;18.10;46.40;;;;;;4848451;29;20182;-65
2021/03/20 10:25:25;;;;;;;3.67;1.20;;;18.20;46.70;;;;;;4857727;29;20535;-66
2021/03/20 10:27:57;;;;;;;2.47;0.90;;;18.20;46.90;;;;;;4878439;29;20260;-67
2021/03/20 10:30:24;;;;;;;2.53;1.10;;;18.20;47.00;;;;;;4863661;29;20172;-74
2021/03/20 10:33:03;;;;;;;1.33;0.93;;;18.20;47.10;;;;;;4877276;29;20213;-72
2021/03/20 10:35:31;;;;;;;1.42;0.88;;;18.20;47.30;;;;;;4862563;29;20557;-74
2021/03/20 10:37:56;;;;;;;3.58;1.40;;;18.30;47.40;;;;;;4847679;29;20574;-67
2021/03/20 10:40:24;;;;;;;1.42;1.05;;;18.30;47.50;;;;;;4847604;29;20185;-75
2021/03/20 10:42:52;;;;;;;1.40;1.20;;;18.30;48.20;;;;;;4862729;29;20233;-68
2021/03/20 10:45:36;;;;;;;1.30;1.20;;;18.30;47.70;;;;;;4863140;29;20579;-74
2021/03/20 10:48:11;;;;;;;3.35;1.23;;;18.30;47.70;;;;;;4848092;29;20173;-66
2021/03/20 10:50:40;;;;;;;1.75;1.00;;;18.30;47.70;;;;;;4869839;29;20189;-65
2021/03/20 10:53:12;;;;;;;1.23;1.00;;;18.30;47.80;;;;;;4878554;29;20201;-70
2021/03/20 10:55:43;;;;;;;1.58;1.02;;;18.30;47.80;;;;;;4866750;29;20255;-70
2021/03/20 10:58:12;;;;;;;1.52;0.90;;;18.30;47.80;;;;;;4881444;29;20180;-67
2021/03/20 11:00:48;;;;;;;2.35;1.10;;;18.40;47.90;;;;;;4896850;29;20259;-72
2021/03/20 11:03:13;;;;;;;1.45;1.10;;;18.40;47.90;;;;;;4896527;29;20591;-68
2021/03/20 11:05:41;;;;;;;1.35;1.02;;;18.40;48.00;;;;;;4897844;29;20181;-69
2021/03/20 11:08:15;;;;;;;1.42;0.80;;;18.50;48.10;;;;;;4896859;29;20651;-67
2021/03/20 11:10:43;;;;;;;1.45;1.17;;;18.50;48.10;;;;;;4897336;29;20205;-70
2021/03/20 11:13:36;;;;;;;2.17;1.08;;;18.50;48.10;;;;;;4896756;29;20207;-70
2021/03/20 11:16:05;;;;;;;1.48;1.10;;;18.50;48.20;;;;;;4881192;29;20586;-68
2021/03/20 11:18:34;;;;;;;1.20;0.90;;;18.50;48.20;;;;;;4896025;29;20199;-69
2021/03/20 11:21:00;;;;;;;1.73;1.00;;;18.60;48.20;;;;;;4896668;29;20263;-71
2021/03/20 11:23:34;;;;;;;1.58;0.90;;;18.60;48.30;;;;;;4880494;29;20297;-71
2021/03/20 11:26:11;;;;;;;1.63;1.20;;;18.60;48.20;;;;;;4847601;29;20182;-73
2021/03/20 11:28:36;;;;;;;0.90;0.80;;;18.60;48.30;;;;;;4878917;29;20169;-72
2021/03/20 11:31:03;;;;;;;1.27;0.90;;;18.60;48.30;;;;;;4861871;29;20203;-72
2021/03/20 11:33:29;;;;;;;0.90;0.90;;;18.60;48.90;;;;;;4861919;29;20243;-71
2021/03/20 11:36:07;;;;;;;2.22;0.95;;;18.60;48.20;;;;;;4846737;29;20189;-68
2021/03/20 11:38:33;;;;;;;1.73;0.88;;;18.70;48.30;;;;;;4846203;29;20568;-72
2021/03/20 11:41:01;;;;;;;1.75;0.82;;;18.70;48.30;;;;;;4877834;29;20189;-75
2021/03/20 11:43:43;;;;;;;1.17;0.85;;;18.70;48.30;;;;;;4878723;29;20177;-71
2021/03/20 11:46:12;;;;;;;2.08;1.27;;;18.70;48.30;;;;;;4878258;29;20182;-71
2021/03/20 11:48:54;;;;;;;1.88;0.93;;;18.70;48.60;;;;;;4877517;29;20207;-71
2021/03/20 11:51:28;;;;;;;2.45;0.93;;;18.70;48.30;;;;;;4861220;29;20173;-68
2021/03/20 11:53:57;;;;;;;0.77;0.73;;;18.70;48.40;;;;;;4846681;29;20261;-68
2021/03/20 11:56:36;;;;;;;3.72;0.80;;;18.70;48.30;;;;;;4843359;29;20425;-77
2021/03/20 11:59:06;;;;;;;1.67;1.10;;;18.80;48.30;;;;;;4858451;29;20177;-70
2021/03/20 12:01:31;;;;;;;2.70;1.05;;;18.80;48.30;;;;;;4843241;29;20182;-67
2021/03/20 12:04:00;;;;;;;0.65;0.65;;;18.80;48.30;;;;;;4860002;29;20188;-68
2021/03/20 12:06:29;;;;;;;0.93;0.70;;;18.80;48.30;;;;;;4842844;29;20657;-67
2021/03/20 12:08:56;;;;;;;1.15;0.80;;;18.80;48.30;;;;;;4858914;29;20213;-67
2021/03/20 12:11:42;;;;;;;2.00;0.95;;;18.80;49.00;;;;;;4858669;29;20178;-68
2021/03/20 12:14:29;;;;;;;1.33;0.70;;;18.90;48.40;;;;;;4842722;29;20281;-68
2021/03/20 12:17:05;;;;;;;1.17;0.88;;;18.90;48.40;;;;;;4860081;29;20173;-69
2021/03/20 12:19:31;;;;;;;1.20;0.80;;;18.90;48.40;;;;;;4858681;29;20205;-67
2021/03/20 12:22:00;;;;;;;1.58;0.80;;;18.90;48.50;;;;;;4843189;29;20205;-67
2021/03/20 12:24:28;;;;;;;1.08;0.70;;;18.90;48.50;;;;;;4865954;29;20657;-68
2021/03/20 12:26:54;;;;;;;1.13;1.00;;;18.90;48.60;;;;;;4876595;29;20173;-69
2021/03/20 12:29:42;;;;;;;1.30;0.70;;;18.90;48.60;;;;;;4876941;29;20508;-69
2021/03/20 12:32:34;;;;;;;0.80;0.80;;;18.90;48.70;;;;;;4877359;29;20181;-70
2021/03/20 12:35:18;;;;;;;1.98;0.90;;;18.90;48.80;;;;;;4869845;29;20249;-70
2021/03/20 12:38:14;;;;;;;1.23;0.70;;;18.90;48.80;;;;;;4878292;29;20181;-72
2021/03/20 12:40:41;;;;;;;2.13;1.02;;;18.90;48.70;;;;;;4859144;29;20194;-69
2021/03/20 12:43:15;;;;;;;1.67;0.73;;;18.90;48.80;;;;;;4877332;29;20225;-75
2021/03/20 12:45:40;;;;;;;0.85;0.80;;;18.90;48.70;;;;;;4877028;29;20626;-73
2021/03/20 12:48:09;;;;;;;1.27;1.02;;;18.90;48.60;;;;;;4876756;29;20225;-75
2021/03/20 12:50:34;;;;;;;1.08;0.80;;;18.90;48.60;;;;;;4876970;29;20264;-78
2021/03/20 12:53:00;;;;;;;1.13;1.00;;;19.00;48.60;;;;;;4861440;29;20651;-76
2021/03/20 12:55:26;;;;;;;0.70;0.70;;;19.00;48.60;;;;;;4876132;29;20181;-71
2021/03/20 12:57:51;;;;;;;4.63;1.30;;;18.90;48.40;;;;;;4878312;29;20189;-70
2021/03/20 13:00:19;;;;;;;1.95;1.02;;;18.90;48.40;;;;;;4877182;29;20216;-68
2021/03/20 13:02:44;;;;;;;2.05;1.10;;;19.00;48.40;;;;;;4878884;29;20778;-68
2021/03/20 13:05:43;;;;;;;2.10;0.95;;;19.00;48.40;;;;;;4880373;29;20193;-68
2021/03/20 13:08:09;;;;;;;2.63;1.05;;;19.00;48.40;;;;;;4870045;29;20196;-68
2021/03/20 13:10:34;;;;;;;1.08;0.68;;;19.10;48.50;;;;;;4879468;29;20177;-67
2021/03/20 13:13:00;;;;;;;0.88;0.70;;;19.10;48.50;;;;;;4880173;29;20204;-67
2021/03/20 13:15:26;;;;;;;2.13;1.00;;;19.10;48.50;;;;;;4879947;29;20177;-67
2021/03/20 13:17:51;;;;;;;1.42;0.90;;;19.10;48.50;;;;;;4864188;29;20539;-67
2021/03/20 13:20:18;;;;;;;2.60;0.80;;;19.20;48.50;;;;;;4864685;29;20625;-68
2021/03/20 13:22:44;;;;;;;3.22;0.93;;;19.30;48.60;;;;;;4881279;29;20188;-68
2021/03/20 13:25:15;;;;;;;1.65;0.70;;;19.30;48.60;;;;;;4879287;29;20173;-68